createdAt,value
2022-12-03T00:01:21.320Z,27.73
2022-12-03T00:03:48.972Z,32.70
2022-12-03T00:08:45.677Z,29.30
2022-12-03T00:11:13.182Z,28.42
2022-12-03T00:13:40.720Z,33.55
2022-12-03T00:16:08.581Z,29.15
2022-12-03T00:18:36.107Z,31.25
2022-12-03T00:21:03.600Z,36.33
2022-12-03T00:23:31.099Z,32.08
2022-12-03T00:25:58.614Z,33.45
2022-12-03T00:28:26.137Z,29.10
2022-12-03T00:30:54.390Z,31.38
2022-12-03T00:33:23.010Z,37.97
2022-12-03T00:35:50.626Z,35.70
2022-12-03T00:38:18.222Z,31.48
2022-12-03T00:40:45.805Z,36.03
2022-12-03T00:43:13.343Z,34.10
2022-12-03T00:45:40.778Z,31.80
2022-12-03T00:48:08.325Z,30.98
2022-12-03T00:50:35.836Z,32.90
2022-12-03T00:53:03.401Z,38.03
2022-12-03T00:55:30.883Z,33.20
2022-12-03T00:57:58.382Z,29.42
2022-12-03T01:00:26.093Z,28.00
2022-12-03T01:02:54.208Z,33.10
2022-12-03T01:05:22.155Z,30.10
2022-12-03T01:07:49.652Z,32.95
2022-12-03T01:10:17.255Z,34.20
2022-12-03T01:12:44.792Z,28.45
2022-12-03T01:15:12.725Z,32.70
2022-12-03T01:17:40.214Z,30.77
2022-12-03T01:20:10.099Z,34.13
2022-12-03T01:22:38.012Z,31.67
2022-12-03T01:25:05.916Z,32.80
2022-12-03T01:27:33.488Z,31.05
2022-12-03T01:30:00.997Z,31.35
2022-12-03T01:32:27.587Z,32.80
2022-12-03T01:34:56.863Z,28.55
2022-12-03T01:37:26.395Z,34.13
2022-12-03T01:39:54.472Z,34.42
2022-12-03T01:42:27.599Z,37.72
2022-12-03T01:44:58.438Z,42.17
2022-12-03T01:47:31.296Z,34.20
2022-12-03T01:50:07.012Z,43.83
2022-12-03T01:52:39.522Z,30.95
2022-12-03T01:55:17.511Z,36.78
2022-12-03T01:57:48.610Z,29.98
2022-12-03T02:00:22.715Z,31.50
2022-12-03T02:02:54.056Z,36.97
2022-12-03T02:05:27.247Z,31.23
2022-12-03T02:07:55.437Z,34.05
2022-12-03T02:10:33.394Z,36.10
2022-12-03T02:13:05.083Z,32.72
2022-12-03T02:15:32.813Z,23.77
2022-12-03T02:18:00.870Z,38.42
2022-12-03T02:20:28.659Z,33.78
2022-12-03T02:23:09.808Z,33.47
2022-12-03T02:25:37.920Z,29.25
2022-12-03T02:28:07.089Z,43.83
2022-12-03T02:30:35.381Z,33.40
2022-12-03T02:33:03.572Z,31.55
2022-12-03T02:35:36.215Z,30.83
2022-12-03T02:38:14.358Z,35.28
2022-12-03T02:40:43.007Z,29.17
2022-12-03T02:43:11.350Z,35.72
2022-12-03T02:45:51.996Z,32.35
2022-12-03T02:48:24.441Z,33.47
2022-12-03T02:53:27.689Z,36.80
2022-12-03T02:55:57.945Z,29.77
2022-12-03T02:58:27.108Z,34.22
2022-12-03T03:00:55.774Z,33.63
2022-12-03T03:03:25.687Z,33.70
2022-12-03T03:05:53.619Z,27.23
2022-12-03T03:08:21.240Z,29.35
2022-12-03T03:10:49.098Z,32.75
2022-12-03T03:13:19.420Z,31.77
2022-12-03T03:15:47.474Z,33.75
2022-12-03T03:18:16.665Z,31.88
2022-12-03T03:20:45.185Z,34.95
2022-12-03T03:23:12.675Z,32.33
2022-12-03T03:25:41.654Z,31.95
2022-12-03T03:28:09.302Z,31.15
2022-12-03T03:30:38.261Z,32.95
2022-12-03T03:33:06.196Z,36.25
2022-12-03T03:35:33.868Z,32.83
2022-12-03T03:38:01.437Z,28.90
2022-12-03T03:40:29.337Z,32.92
2022-12-03T03:42:57.681Z,33.67
2022-12-03T03:45:29.164Z,31.70
2022-12-03T03:47:58.554Z,28.05
2022-12-03T03:50:27.720Z,33.10
2022-12-03T03:52:56.663Z,31.02
2022-12-03T03:55:24.529Z,29.83
2022-12-03T03:57:52.214Z,38.25
2022-12-03T04:00:20.209Z,30.52
2022-12-03T04:02:47.928Z,39.63
2022-12-03T04:05:22.356Z,34.83
2022-12-03T04:07:49.903Z,30.70
2022-12-03T04:10:31.646Z,29.02
2022-12-03T04:12:59.253Z,27.42
2022-12-03T04:15:27.838Z,30.30
2022-12-03T04:18:09.249Z,29.20
2022-12-03T04:20:37.102Z,32.30
2022-12-03T04:23:04.138Z,28.50
2022-12-03T04:25:48.237Z,32.30
2022-12-03T04:28:33.101Z,34.67
2022-12-03T04:31:00.759Z,36.58
2022-12-03T04:33:45.768Z,31.70
2022-12-03T04:36:13.254Z,37.03
2022-12-03T04:38:40.764Z,37.58
2022-12-03T04:41:08.237Z,35.17
2022-12-03T04:43:56.062Z,33.55
2022-12-03T04:46:23.629Z,30.35
2022-12-03T04:48:51.189Z,36.72
2022-12-03T04:51:18.625Z,35.85
2022-12-03T04:53:46.486Z,30.73
2022-12-03T04:56:14.137Z,26.38
2022-12-03T04:58:41.639Z,31.80
2022-12-03T05:01:09.153Z,37.92
2022-12-03T05:03:36.674Z,32.53
2022-12-03T05:06:04.201Z,29.83
2022-12-03T05:08:31.700Z,36.28
2022-12-03T05:10:59.182Z,28.75
2022-12-03T05:13:26.646Z,30.55
2022-12-03T05:15:54.180Z,31.60
2022-12-03T05:18:21.624Z,35.08
2022-12-03T05:20:53.195Z,28.13
2022-12-03T05:23:21.427Z,35.20
2022-12-03T05:25:48.974Z,32.38
2022-12-03T05:28:16.583Z,32.53
2022-12-03T05:30:44.088Z,31.42
2022-12-03T05:33:11.759Z,29.98
2022-12-03T05:38:21.752Z,33.10
2022-12-03T05:40:49.289Z,29.20
2022-12-03T05:43:15.912Z,37.00
2022-12-03T05:45:45.319Z,34.72
2022-12-03T05:48:16.444Z,34.65
2022-12-03T05:50:47.140Z,35.95
2022-12-03T05:53:18.505Z,34.85
2022-12-03T05:55:47.595Z,32.80
2022-12-03T05:58:15.144Z,30.95
2022-12-03T06:00:43.174Z,29.85
2022-12-03T06:03:11.354Z,32.55
2022-12-03T06:05:39.081Z,35.40
2022-12-03T06:08:06.696Z,36.70
2022-12-03T06:10:34.287Z,38.30
2022-12-03T06:13:03.161Z,37.03
2022-12-03T06:15:30.756Z,47.25
2022-12-03T06:17:58.346Z,35.55
2022-12-03T06:20:25.954Z,39.97
2022-12-03T06:22:53.509Z,42.30
2022-12-03T06:25:21.040Z,47.50
2022-12-03T06:27:48.566Z,50.65
2022-12-03T06:30:16.354Z,46.40
2022-12-03T06:32:43.849Z,40.15
2022-12-03T06:35:11.461Z,48.20
2022-12-03T06:37:39.002Z,44.28
2022-12-03T06:40:07.262Z,45.90
2022-12-03T06:42:34.740Z,44.53
2022-12-03T06:45:02.203Z,38.58
2022-12-03T06:47:30.209Z,41.25
2022-12-03T06:49:57.736Z,45.20
2022-12-03T06:52:25.284Z,42.28
2022-12-03T06:54:53.066Z,42.67
2022-12-03T06:57:20.723Z,43.35
2022-12-03T06:59:48.216Z,41.80
2022-12-03T07:02:15.729Z,38.28
2022-12-03T07:04:46.208Z,41.17
2022-12-03T07:07:14.445Z,35.92
2022-12-03T07:09:41.911Z,45.15
2022-12-03T07:12:09.406Z,35.33
2022-12-03T07:14:36.906Z,36.38
2022-12-03T07:17:04.545Z,32.63
2022-12-03T07:19:33.007Z,38.40
2022-12-03T07:22:00.857Z,34.72
2022-12-03T07:24:28.834Z,35.95
2022-12-03T07:26:56.688Z,34.13
2022-12-03T07:29:24.433Z,39.65
2022-12-03T07:31:52.126Z,35.53
2022-12-03T07:34:19.715Z,35.78
2022-12-03T07:36:47.304Z,35.03
2022-12-03T07:39:15.074Z,37.13
2022-12-03T07:41:42.639Z,39.67
2022-12-03T07:44:14.206Z,35.55
2022-12-03T07:46:43.945Z,31.50
2022-12-03T07:49:13.199Z,30.65
2022-12-03T07:51:43.135Z,34.58
2022-12-03T07:54:10.712Z,33.20
2022-12-03T07:56:38.241Z,34.75
2022-12-03T07:59:05.697Z,36.13
2022-12-03T08:01:33.357Z,32.67
2022-12-03T08:04:00.836Z,37.17
2022-12-03T08:06:28.388Z,31.65
2022-12-03T08:08:55.917Z,33.20
2022-12-03T08:11:23.446Z,32.45
2022-12-03T08:13:51.148Z,27.08
2022-12-03T08:16:21.617Z,33.35
2022-12-03T08:18:50.669Z,30.70
2022-12-03T08:21:21.032Z,29.23
2022-12-03T08:23:48.841Z,34.30
2022-12-03T08:26:29.118Z,37.22
2022-12-03T08:28:56.704Z,38.40
2022-12-03T08:31:33.456Z,38.55
2022-12-03T08:34:22.878Z,38.40
2022-12-03T08:37:02.343Z,39.42
2022-12-03T08:39:33.348Z,36.97
2022-12-03T08:42:31.351Z,36.67
2022-12-03T08:45:21.165Z,34.97
2022-12-03T08:47:48.702Z,34.55
2022-12-03T08:50:29.812Z,42.17
2022-12-03T08:53:23.517Z,38.78
2022-12-03T08:55:56.018Z,36.42
2022-12-03T08:58:26.441Z,42.97
2022-12-03T09:01:16.386Z,41.33
2022-12-03T09:03:52.112Z,39.88
2022-12-03T09:06:19.675Z,46.13
2022-12-03T09:08:47.200Z,43.83
2022-12-03T09:11:15.853Z,42.92
2022-12-03T09:13:43.401Z,39.50
2022-12-03T09:16:10.978Z,44.10
2022-12-03T09:18:38.529Z,45.90
2022-12-03T09:21:06.256Z,41.33
2022-12-03T09:23:33.841Z,45.65
2022-12-03T09:26:01.338Z,40.63
2022-12-03T09:28:28.904Z,43.50
2022-12-03T09:30:56.381Z,47.85
2022-12-03T09:33:23.912Z,51.22
2022-12-03T09:35:51.479Z,44.28
2022-12-03T09:38:19.030Z,47.65
2022-12-03T09:40:46.759Z,42.97
2022-12-03T09:43:14.455Z,45.33
2022-12-03T09:45:42.211Z,49.17
2022-12-03T09:48:09.745Z,44.33
2022-12-03T09:50:42.268Z,46.50
2022-12-03T09:53:14.336Z,41.33
2022-12-03T09:55:43.600Z,48.80
2022-12-03T09:58:13.363Z,45.70
2022-12-03T10:00:42.791Z,44.08
2022-12-03T10:03:15.025Z,41.03
2022-12-03T10:05:47.941Z,42.53
2022-12-03T10:08:21.075Z,43.35
2022-12-03T10:10:51.581Z,45.08
2022-12-03T10:13:29.749Z,45.45
2022-12-03T10:15:59.639Z,42.35
2022-12-03T10:18:31.585Z,40.53
2022-12-03T10:21:00.211Z,42.75
2022-12-03T10:23:30.823Z,50.47
2022-12-03T10:26:03.135Z,44.65
2022-12-03T10:31:02.819Z,33.33
2022-12-03T10:33:33.995Z,43.03
2022-12-03T10:36:28.077Z,41.25
2022-12-03T10:39:14.478Z,44.97
2022-12-03T10:41:44.604Z,37.97
2022-12-03T10:44:15.868Z,40.67
2022-12-03T10:46:44.905Z,38.28
2022-12-03T10:49:21.228Z,41.05
2022-12-03T10:51:50.101Z,36.80
2022-12-03T10:54:22.579Z,40.35
2022-12-03T10:59:25.587Z,45.90
2022-12-03T11:01:54.090Z,39.75
2022-12-03T11:04:31.658Z,52.17
2022-12-03T11:07:00.456Z,30.75
2022-12-03T11:09:32.435Z,48.53
2022-12-03T11:12:07.852Z,35.10
2022-12-03T11:14:50.713Z,50.35
2022-12-03T11:17:44.035Z,51.63
2022-12-03T11:20:37.083Z,51.83
2022-12-03T11:23:04.633Z,50.45
2022-12-03T11:25:47.881Z,44.58
2022-12-03T11:28:15.329Z,56.28
2022-12-03T11:30:51.805Z,56.88
2022-12-03T11:33:27.049Z,54.60
2022-12-03T11:36:06.719Z,48.83
2022-12-03T11:38:54.216Z,42.45
2022-12-03T11:41:36.090Z,47.00
2022-12-03T11:44:25.966Z,42.85
2022-12-03T11:46:54.160Z,41.95
2022-12-03T11:49:34.494Z,46.42
2022-12-03T11:52:05.558Z,52.70
2022-12-03T11:54:36.143Z,46.15
2022-12-03T11:57:04.117Z,48.40
2022-12-03T11:59:32.176Z,42.28
2022-12-03T12:01:59.702Z,50.90
2022-12-03T12:04:33.848Z,44.10
2022-12-03T12:07:03.968Z,50.80
2022-12-03T12:09:54.813Z,45.08
2022-12-03T12:12:40.952Z,36.22
2022-12-03T12:15:56.887Z,42.90
2022-12-03T12:18:39.128Z,31.50
2022-12-03T12:21:44.356Z,32.05
2022-12-03T12:24:31.886Z,32.58
2022-12-03T12:27:05.519Z,36.47
2022-12-03T12:29:33.357Z,36.88
2022-12-03T12:32:07.725Z,34.47
2022-12-03T12:34:38.148Z,37.38
2022-12-03T12:37:10.963Z,27.58
2022-12-03T12:39:38.779Z,25.15
2022-12-03T12:42:28.994Z,27.17
2022-12-03T12:45:02.166Z,29.92
2022-12-03T12:47:31.071Z,32.55
2022-12-03T12:49:59.762Z,26.73
2022-12-03T12:52:28.865Z,32.15
2022-12-03T12:54:59.082Z,32.53
2022-12-03T12:57:30.670Z,29.38
2022-12-03T12:59:58.269Z,32.20
2022-12-03T13:02:31.959Z,28.55
2022-12-03T13:05:04.193Z,32.72
2022-12-03T13:07:32.863Z,32.15
2022-12-03T13:10:14.839Z,36.25
2022-12-03T13:12:42.527Z,34.45
2022-12-03T13:15:36.162Z,37.95
2022-12-03T13:18:21.457Z,44.42
2022-12-03T13:20:49.319Z,38.70
2022-12-03T13:23:31.359Z,42.50
2022-12-03T13:26:12.907Z,26.30
2022-12-03T13:28:46.152Z,31.95
2022-12-03T13:31:22.425Z,36.47
2022-12-03T13:33:50.932Z,39.92
2022-12-03T13:36:21.120Z,42.92
2022-12-03T13:38:49.155Z,37.67
2022-12-03T13:41:37.940Z,42.00
2022-12-03T13:44:19.041Z,32.95
2022-12-03T13:46:47.322Z,39.33
2022-12-03T13:49:19.963Z,42.53
2022-12-03T13:51:48.280Z,51.10
2022-12-03T13:54:24.629Z,44.45
2022-12-03T13:56:52.400Z,46.00
2022-12-03T13:59:25.751Z,48.78
2022-12-03T14:01:53.978Z,44.75
2022-12-03T14:04:21.637Z,43.42
2022-12-03T14:06:49.169Z,47.47
2022-12-03T14:09:16.734Z,44.45
2022-12-03T14:12:01.801Z,45.30
2022-12-03T14:14:29.275Z,48.95
2022-12-03T14:16:59.830Z,50.67
2022-12-03T14:19:27.800Z,47.38
2022-12-03T14:21:55.333Z,46.40
2022-12-03T14:24:23.008Z,55.00
2022-12-03T14:26:50.468Z,54.75
2022-12-03T14:29:18.087Z,50.17
2022-12-03T14:31:48.597Z,59.67
2022-12-03T14:34:18.124Z,58.70
2022-12-03T14:36:45.709Z,53.22
2022-12-03T14:39:13.300Z,50.70
2022-12-03T14:41:58.804Z,60.03
2022-12-03T14:44:26.276Z,65.35
2022-12-03T14:46:57.070Z,57.70
2022-12-03T14:49:25.172Z,67.35
2022-12-03T14:51:52.810Z,50.47
2022-12-03T14:54:21.245Z,53.42
2022-12-03T14:56:48.889Z,49.58
2022-12-03T14:59:16.511Z,48.60
2022-12-03T15:01:44.226Z,49.10
2022-12-03T15:04:11.763Z,48.65
2022-12-03T15:06:39.311Z,53.50
2022-12-03T15:09:07.115Z,47.25
2022-12-03T15:11:34.943Z,47.65
2022-12-03T15:14:02.501Z,50.38
2022-12-03T15:16:30.101Z,47.22
2022-12-03T15:18:57.719Z,59.28
2022-12-03T15:21:25.270Z,41.95
2022-12-03T15:23:52.883Z,48.58
2022-12-03T15:26:20.457Z,40.33
2022-12-03T15:28:48.569Z,45.00
2022-12-03T15:31:16.313Z,36.92
2022-12-03T15:33:43.855Z,36.92
2022-12-03T15:36:11.375Z,43.10
2022-12-03T15:38:38.917Z,44.90
2022-12-03T15:44:29.665Z,36.65
2022-12-03T15:46:57.433Z,38.85
2022-12-03T15:49:24.977Z,34.22
2022-12-03T15:51:52.570Z,40.30
2022-12-03T15:54:20.124Z,37.53
2022-12-03T15:56:50.483Z,37.28
2022-12-03T15:59:20.285Z,40.15
2022-12-03T16:01:47.935Z,26.58
2022-12-03T16:04:15.420Z,33.00
2022-12-03T16:06:42.883Z,33.85
2022-12-03T16:09:10.434Z,33.53
2022-12-03T16:11:37.979Z,39.00
2022-12-03T16:14:05.514Z,40.72
2022-12-03T16:16:33.114Z,41.22
2022-12-03T16:19:00.774Z,39.78
2022-12-03T16:21:28.969Z,42.90
2022-12-03T16:23:56.912Z,45.13
2022-12-03T16:26:24.475Z,48.63
2022-12-03T16:28:52.038Z,44.50
2022-12-03T16:31:20.071Z,52.67
2022-12-03T16:33:47.994Z,55.72
2022-12-03T16:36:16.516Z,56.05
2022-12-03T16:38:44.182Z,54.72
2022-12-03T16:41:11.758Z,53.55
2022-12-03T16:43:39.518Z,56.80
2022-12-03T16:46:26.095Z,53.63
2022-12-03T16:48:56.456Z,52.75
2022-12-03T16:51:24.016Z,64.55
2022-12-03T16:53:51.917Z,59.63
2022-12-03T16:56:20.053Z,62.00
2022-12-03T16:58:48.020Z,60.10
2022-12-03T17:01:15.566Z,46.85
2022-12-03T17:03:43.277Z,68.55
2022-12-03T17:06:10.879Z,61.47
2022-12-03T17:08:38.449Z,60.50
2022-12-03T17:11:06.178Z,58.15
2022-12-03T17:13:33.714Z,61.95
2022-12-03T17:16:01.817Z,65.20
2022-12-03T17:18:29.358Z,61.17
2022-12-03T17:20:56.864Z,63.15
2022-12-03T17:23:24.386Z,62.80
2022-12-03T17:25:51.880Z,57.72
2022-12-03T17:28:19.505Z,62.28
2022-12-03T17:30:47.103Z,61.67
2022-12-03T17:33:14.807Z,58.97
2022-12-03T17:35:43.349Z,62.30
2022-12-03T17:38:11.219Z,63.63
2022-12-03T17:40:38.880Z,59.13
2022-12-03T17:43:06.429Z,57.42
2022-12-03T17:45:34.021Z,85.03
2022-12-03T17:48:01.630Z,61.78
2022-12-03T17:50:29.151Z,50.30
2022-12-03T17:52:56.684Z,61.55
2022-12-03T17:55:35.966Z,60.20
2022-12-03T17:58:07.165Z,68.90
2022-12-03T18:00:35.251Z,57.50
2022-12-03T18:03:02.788Z,69.30
2022-12-03T18:05:30.328Z,59.90
2022-12-03T18:07:58.186Z,54.85
2022-12-03T18:10:25.715Z,61.47
2022-12-03T18:12:56.966Z,63.60
2022-12-03T18:15:27.473Z,48.30
2022-12-03T18:17:54.978Z,60.42
2022-12-03T18:20:22.575Z,62.08
2022-12-03T18:22:50.173Z,55.55
2022-12-03T18:25:18.105Z,61.03
2022-12-03T18:27:47.112Z,56.88
2022-12-03T18:30:14.785Z,60.80
2022-12-03T18:32:42.373Z,54.85
2022-12-03T18:35:10.357Z,56.60
2022-12-03T18:37:38.418Z,72.43
2022-12-03T18:40:13.231Z,67.63
2022-12-03T18:42:41.068Z,68.28
2022-12-03T18:45:13.139Z,65.68
2022-12-03T18:47:40.710Z,65.82
2022-12-03T18:50:09.461Z,73.85
2022-12-03T18:52:37.086Z,64.25
2022-12-03T18:55:06.079Z,69.55
2022-12-03T18:57:33.577Z,70.07
2022-12-03T19:00:01.229Z,60.53
2022-12-03T19:05:16.655Z,65.85
2022-12-03T19:07:44.292Z,59.25
2022-12-03T19:10:13.055Z,66.10
2022-12-03T19:12:40.629Z,61.72
2022-12-03T19:15:08.882Z,57.00
2022-12-03T19:17:39.634Z,64.53
2022-12-03T19:20:12.214Z,62.47
2022-12-03T19:25:07.421Z,67.22
2022-12-03T19:27:35.003Z,62.85
2022-12-03T19:30:02.613Z,57.00
2022-12-03T19:32:30.205Z,63.65
2022-12-03T19:34:57.878Z,65.78
2022-12-03T19:37:25.407Z,78.38
2022-12-03T19:39:55.894Z,55.63
2022-12-03T19:42:23.650Z,57.55
2022-12-03T19:44:51.156Z,60.58
2022-12-03T19:47:18.649Z,61.67
2022-12-03T19:49:46.134Z,56.75
2022-12-03T19:52:13.637Z,60.33
2022-12-03T19:54:41.153Z,57.75
2022-12-03T19:57:08.908Z,61.28
2022-12-03T19:59:36.450Z,62.50
2022-12-03T20:02:04.140Z,52.47
2022-12-03T20:04:31.794Z,61.28
2022-12-03T20:06:59.360Z,60.42
2022-12-03T20:09:26.911Z,54.72
2022-12-03T20:11:54.414Z,54.03
2022-12-03T20:14:21.988Z,58.58
2022-12-03T20:16:49.614Z,47.97
2022-12-03T20:19:18.864Z,54.50
2022-12-03T20:21:46.419Z,55.28
2022-12-03T20:24:16.405Z,55.72
2022-12-03T20:26:44.643Z,56.25
2022-12-03T20:29:12.298Z,51.85
2022-12-03T20:31:40.049Z,56.58
2022-12-03T20:34:07.661Z,52.28
2022-12-03T20:36:35.435Z,54.72
2022-12-03T20:39:08.931Z,50.72
2022-12-03T20:41:37.645Z,52.92
2022-12-03T20:44:07.830Z,51.83
2022-12-03T20:46:36.210Z,55.40
2022-12-03T20:49:04.126Z,50.65
2022-12-03T20:51:32.100Z,50.42
2022-12-03T20:54:01.159Z,55.78
2022-12-03T20:56:31.523Z,56.53
2022-12-03T20:59:06.022Z,50.55
2022-12-03T21:01:34.336Z,51.83
2022-12-03T21:04:03.036Z,51.60
2022-12-03T21:06:30.942Z,52.15
2022-12-03T21:09:00.682Z,48.60
2022-12-03T21:11:30.803Z,57.03
2022-12-03T21:13:59.592Z,51.95
2022-12-03T21:17:06.518Z,46.13
2022-12-03T21:19:21.835Z,48.17
2022-12-03T21:21:49.794Z,48.60
2022-12-03T21:24:17.424Z,48.60
2022-12-03T21:26:47.546Z,45.88
2022-12-03T21:29:15.508Z,48.28
2022-12-03T21:31:43.329Z,49.00
2022-12-03T21:34:10.940Z,49.30
2022-12-03T21:36:39.624Z,57.88
2022-12-03T21:39:08.895Z,50.92
2022-12-03T21:41:36.524Z,54.45
2022-12-03T21:44:07.018Z,58.83
2022-12-03T21:47:12.408Z,49.63
2022-12-03T21:49:23.148Z,53.88
2022-12-03T21:51:50.714Z,59.60
2022-12-03T21:54:18.511Z,47.85
2022-12-03T21:56:46.065Z,58.03
2022-12-03T21:59:13.651Z,48.00
2022-12-03T22:01:45.690Z,50.17
2022-12-03T22:04:14.742Z,50.92
2022-12-03T22:06:44.584Z,39.33
2022-12-03T22:09:12.117Z,54.85
2022-12-03T22:11:39.769Z,49.58
2022-12-03T22:14:08.521Z,52.63
2022-12-03T22:16:36.114Z,29.67
2022-12-03T22:19:03.803Z,49.58
2022-12-03T22:21:31.556Z,53.30
2022-12-03T22:23:59.244Z,53.13
2022-12-03T22:26:26.770Z,57.08
2022-12-03T22:28:54.289Z,50.65
2022-12-03T22:31:21.861Z,48.55
2022-12-03T22:33:49.714Z,51.30
2022-12-03T22:36:21.602Z,49.90
2022-12-03T22:38:50.825Z,54.58
2022-12-03T22:41:19.048Z,52.70
2022-12-03T22:43:47.886Z,44.83
2022-12-03T22:46:16.462Z,49.85
2022-12-03T22:48:46.018Z,58.38
2022-12-03T22:51:16.306Z,46.47
2022-12-03T22:53:43.809Z,53.63
2022-12-03T22:56:11.287Z,51.97
2022-12-03T22:58:40.355Z,54.47
2022-12-03T23:01:08.846Z,49.05
2022-12-03T23:03:37.551Z,58.85
2022-12-03T23:06:12.790Z,54.80
2022-12-03T23:08:40.651Z,49.10
2022-12-03T23:11:08.398Z,49.20
2022-12-03T23:13:36.272Z,55.40
2022-12-03T23:16:04.158Z,56.90
2022-12-03T23:18:32.460Z,56.03
2022-12-03T23:21:00.132Z,52.80
2022-12-03T23:23:28.768Z,53.60
2022-12-03T23:26:00.701Z,52.58
2022-12-03T23:28:29.977Z,44.08
2022-12-03T23:30:57.890Z,52.72
2022-12-03T23:33:26.314Z,57.88
2022-12-03T23:35:53.883Z,53.67
2022-12-03T23:38:21.799Z,57.47
2022-12-03T23:40:49.340Z,56.33
2022-12-03T23:43:17.385Z,54.88
2022-12-03T23:45:44.874Z,56.88
2022-12-03T23:48:12.898Z,58.00
2022-12-03T23:50:41.279Z,48.90
2022-12-03T23:53:09.026Z,57.78
2022-12-03T23:55:40.841Z,61.42
2022-12-03T23:58:08.386Z,48.35
